sensor_id;sensor_type;location;lat;lon;timestamp;temperature;humidity
4727;DHT22;2377;51.734;8.950;2023-02-15T00:00:02;1.50;1.00
4727;DHT22;2377;51.734;8.950;2023-02-15T00:02:31;1.40;1.00
4727;DHT22;2377;51.734;8.950;2023-02-15T00:04:58;1.40;1.00
4727;DHT22;2377;51.734;8.950;2023-02-15T00:07:25;1.40;1.00
4727;DHT22;2377;51.734;8.950;2023-02-15T00:09:51;1.50;1.00
4727;DHT22;2377;51.734;8.950;2023-02-15T00:12:18;1.40;1.00
4727;DHT22;2377;51.734;8.950;2023-02-15T00:14:47;1.40;1.00
4727;DHT22;2377;51.734;8.950;2023-02-15T00:17:14;1.30;1.00
4727;DHT22;2377;51.734;8.950;2023-02-15T00:19:41;1.30;1.00
4727;DHT22;2377;51.734;8.950;2023-02-15T00:22:08;1.30;1.00
4727;DHT22;2377;51.734;8.950;2023-02-15T00:24:35;1.30;1.00
4727;DHT22;2377;51.734;8.950;2023-02-15T00:27:02;1.30;1.00
4727;DHT22;2377;51.734;8.950;2023-02-15T00:29:29;1.30;1.60
4727;DHT22;2377;51.734;8.950;2023-02-15T00:31:57;1.30;5.60
4727;DHT22;2377;51.734;8.950;2023-02-15T00:34:26;1.30;7.10
4727;DHT22;2377;51.734;8.950;2023-02-15T00:36:54;1.30;3.20
4727;DHT22;2377;51.734;8.950;2023-02-15T00:39:20;1.30;3.50
4727;DHT22;2377;51.734;8.950;2023-02-15T00:41:49;1.30;2.40
4727;DHT22;2377;51.734;8.950;2023-02-15T00:44:16;1.30;1.00
4727;DHT22;2377;51.734;8.950;2023-02-15T00:46:43;1.20;7.10
4727;DHT22;2377;51.734;8.950;2023-02-15T00:49:11;1.10;2.90
4727;DHT22;2377;51.734;8.950;2023-02-15T00:51:38;1.10;1.00
4727;DHT22;2377;51.734;8.950;2023-02-15T00:54:06;1.20;1.00
4727;DHT22;2377;51.734;8.950;2023-02-15T00:56:33;1.10;6.80
4727;DHT22;2377;51.734;8.950;2023-02-15T00:59:00;1.10;10.50
4727;DHT22;2377;51.734;8.950;2023-02-15T01:01:27;1.10;1.80
4727;DHT22;2377;51.734;8.950;2023-02-15T01:03:54;1.10;6.50
4727;DHT22;2377;51.734;8.950;2023-02-15T01:06:22;1.10;4.00
4727;DHT22;2377;51.734;8.950;2023-02-15T01:08:49;1.10;2.60
4727;DHT22;2377;51.734;8.950;2023-02-15T01:11:18;1.00;3.60
4727;DHT22;2377;51.734;8.950;2023-02-15T01:13:47;1.00;12.20
4727;DHT22;2377;51.734;8.950;2023-02-15T01:16:16;1.00;14.80
4727;DHT22;2377;51.734;8.950;2023-02-15T01:18:43;1.00;4.80
4727;DHT22;2377;51.734;8.950;2023-02-15T01:21:11;1.00;10.70
4727;DHT22;2377;51.734;8.950;2023-02-15T01:23:41;1.00;7.00
4727;DHT22;2377;51.734;8.950;2023-02-15T01:26:09;0.90;11.90
4727;DHT22;2377;51.734;8.950;2023-02-15T01:28:37;0.90;12.60
4727;DHT22;2377;51.734;8.950;2023-02-15T01:31:05;0.90;19.60
4727;DHT22;2377;51.734;8.950;2023-02-15T01:33:34;0.80;24.40
4727;DHT22;2377;51.734;8.950;2023-02-15T01:36:03;0.80;35.10
4727;DHT22;2377;51.734;8.950;2023-02-15T01:38:31;0.80;41.60
4727;DHT22;2377;51.734;8.950;2023-02-15T01:40:59;0.80;37.10
4727;DHT22;2377;51.734;8.950;2023-02-15T01:43:41;0.80;29.50
4727;DHT22;2377;51.734;8.950;2023-02-15T01:46:11;0.80;18.00
4727;DHT22;2377;51.734;8.950;2023-02-15T01:48:44;0.70;26.90
4727;DHT22;2377;51.734;8.950;2023-02-15T01:51:15;0.60;20.50
4727;DHT22;2377;51.734;8.950;2023-02-15T01:53:48;0.60;20.90
4727;DHT22;2377;51.734;8.950;2023-02-15T01:56:21;0.60;26.60
4727;DHT22;2377;51.734;8.950;2023-02-15T01:58:53;0.60;36.90
4727;DHT22;2377;51.734;8.950;2023-02-15T02:01:23;0.60;36.70
4727;DHT22;2377;51.734;8.950;2023-02-15T02:03:57;0.60;28.60
4727;DHT22;2377;51.734;8.950;2023-02-15T02:06:29;0.60;20.00
4727;DHT22;2377;51.734;8.950;2023-02-15T02:08:57;0.50;10.00
4727;DHT22;2377;51.734;8.950;2023-02-15T02:11:26;0.50;15.10
4727;DHT22;2377;51.734;8.950;2023-02-15T02:13:53;0.50;28.90
4727;DHT22;2377;51.734;8.950;2023-02-15T02:16:25;0.50;32.50
4727;DHT22;2377;51.734;8.950;2023-02-15T02:19:28;0.40;19.10
4727;DHT22;2377;51.734;8.950;2023-02-15T02:22:39;0.40;28.60
4727;DHT22;2377;51.734;8.950;2023-02-15T02:26:16;0.40;26.20
4727;DHT22;2377;51.734;8.950;2023-02-15T02:36:13;0.20;71.20
4727;DHT22;2377;51.734;8.950;2023-02-15T02:38:56;0.20;49.70
4727;DHT22;2377;51.734;8.950;2023-02-15T02:41:38;0.30;28.00
4727;DHT22;2377;51.734;8.950;2023-02-15T02:44:17;0.20;26.40
4727;DHT22;2377;51.734;8.950;2023-02-15T02:46:52;0.20;31.00
4727;DHT22;2377;51.734;8.950;2023-02-15T02:49:33;0.20;21.00
4727;DHT22;2377;51.734;8.950;2023-02-15T02:52:02;0.20;11.30
4727;DHT22;2377;51.734;8.950;2023-02-15T02:54:31;0.10;13.70
4727;DHT22;2377;51.734;8.950;2023-02-15T02:57:03;0.10;18.20
4727;DHT22;2377;51.734;8.950;2023-02-15T02:59:40;0.10;22.70
4727;DHT22;2377;51.734;8.950;2023-02-15T03:02:14;0.10;17.30
4727;DHT22;2377;51.734;8.950;2023-02-15T03:04:47;0.10;22.60
4727;DHT22;2377;51.734;8.950;2023-02-15T03:07:25;0.10;26.60
4727;DHT22;2377;51.734;8.950;2023-02-15T03:09:57;0.00;34.50
4727;DHT22;2377;51.734;8.950;2023-02-15T03:12:29;0.00;27.70
4727;DHT22;2377;51.734;8.950;2023-02-15T03:15:03;0.00;23.00
4727;DHT22;2377;51.734;8.950;2023-02-15T03:17:35;0.00;51.40
4727;DHT22;2377;51.734;8.950;2023-02-15T03:20:10;0.00;58.80
4727;DHT22;2377;51.734;8.950;2023-02-15T03:22:43;0.00;36.10
4727;DHT22;2377;51.734;8.950;2023-02-15T03:25:18;0.00;44.60
4727;DHT22;2377;51.734;8.950;2023-02-15T03:27:51;0.00;50.40
4727;DHT22;2377;51.734;8.950;2023-02-15T03:30:22;0.00;46.50
4727;DHT22;2377;51.734;8.950;2023-02-15T03:32:51;0.00;38.80
4727;DHT22;2377;51.734;8.950;2023-02-15T03:35:23;0.00;31.40
4727;DHT22;2377;51.734;8.950;2023-02-15T03:37:58;0.00;41.40
4727;DHT22;2377;51.734;8.950;2023-02-15T03:40:30;0.00;30.70
4727;DHT22;2377;51.734;8.950;2023-02-15T03:43:21;0.00;21.00
4727;DHT22;2377;51.734;8.950;2023-02-15T03:45:56;0.00;24.70
4727;DHT22;2377;51.734;8.950;2023-02-15T03:48:34;0.00;27.00
4727;DHT22;2377;51.734;8.950;2023-02-15T03:51:09;-0.10;15.70
4727;DHT22;2377;51.734;8.950;2023-02-15T03:53:59;0.00;10.70
4727;DHT22;2377;51.734;8.950;2023-02-15T03:56:28;-0.10;11.10
4727;DHT22;2377;51.734;8.950;2023-02-15T03:58:55;-0.10;21.70
4727;DHT22;2377;51.734;8.950;2023-02-15T04:01:46;-0.10;26.40
4727;DHT22;2377;51.734;8.950;2023-02-15T04:04:28;-0.10;27.50
4727;DHT22;2377;51.734;8.950;2023-02-15T04:07:00;-0.10;41.30
4727;DHT22;2377;51.734;8.950;2023-02-15T04:09:29;-0.20;36.00
4727;DHT22;2377;51.734;8.950;2023-02-15T04:12:13;-0.20;41.60
4727;DHT22;2377;51.734;8.950;2023-02-15T04:14:40;-0.20;33.40
4727;DHT22;2377;51.734;8.950;2023-02-15T04:17:25;-0.30;42.40
4727;DHT22;2377;51.734;8.950;2023-02-15T04:19:52;-0.30;36.10
4727;DHT22;2377;51.734;8.950;2023-02-15T04:22:38;-0.20;25.20
4727;DHT22;2377;51.734;8.950;2023-02-15T04:25:23;-0.20;20.60
4727;DHT22;2377;51.734;8.950;2023-02-15T04:27:52;-0.20;17.20
4727;DHT22;2377;51.734;8.950;2023-02-15T04:30:21;-0.20;17.50
4727;DHT22;2377;51.734;8.950;2023-02-15T04:32:50;-0.20;11.80
4727;DHT22;2377;51.734;8.950;2023-02-15T04:35:18;-0.20;14.70
4727;DHT22;2377;51.734;8.950;2023-02-15T04:37:46;-0.20;16.00
4727;DHT22;2377;51.734;8.950;2023-02-15T04:40:14;-0.30;24.90
4727;DHT22;2377;51.734;8.950;2023-02-15T04:42:42;-0.30;15.20
4727;DHT22;2377;51.734;8.950;2023-02-15T04:45:09;-0.30;25.40
4727;DHT22;2377;51.734;8.950;2023-02-15T04:47:36;-0.40;24.60
4727;DHT22;2377;51.734;8.950;2023-02-15T04:50:03;-0.40;26.20
4727;DHT22;2377;51.734;8.950;2023-02-15T04:52:31;-0.40;28.50
4727;DHT22;2377;51.734;8.950;2023-02-15T04:54:59;-0.40;24.10
4727;DHT22;2377;51.734;8.950;2023-02-15T04:57:26;-0.30;17.90
4727;DHT22;2377;51.734;8.950;2023-02-15T04:59:53;-0.30;22.40
4727;DHT22;2377;51.734;8.950;2023-02-15T05:02:20;-0.40;28.00
4727;DHT22;2377;51.734;8.950;2023-02-15T05:04:47;-0.40;29.70
4727;DHT22;2377;51.734;8.950;2023-02-15T05:07:14;-0.40;38.70
4727;DHT22;2377;51.734;8.950;2023-02-15T05:09:41;-0.40;31.40
4727;DHT22;2377;51.734;8.950;2023-02-15T05:12:09;-0.40;23.60
4727;DHT22;2377;51.734;8.950;2023-02-15T05:14:39;-0.40;21.60
4727;DHT22;2377;51.734;8.950;2023-02-15T05:17:06;-0.40;35.60
4727;DHT22;2377;51.734;8.950;2023-02-15T05:19:32;-0.50;37.80
4727;DHT22;2377;51.734;8.950;2023-02-15T05:21:59;-0.50;36.50
4727;DHT22;2377;51.734;8.950;2023-02-15T05:24:26;-0.50;44.70
4727;DHT22;2377;51.734;8.950;2023-02-15T05:27:13;-0.50;30.50
4727;DHT22;2377;51.734;8.950;2023-02-15T05:29:57;-0.50;16.40
4727;DHT22;2377;51.734;8.950;2023-02-15T05:32:24;-0.50;13.80
4727;DHT22;2377;51.734;8.950;2023-02-15T05:34:51;-0.50;10.70
4727;DHT22;2377;51.734;8.950;2023-02-15T05:37:18;-0.50;17.10
4727;DHT22;2377;51.734;8.950;2023-02-15T05:39:45;-0.50;27.50
4727;DHT22;2377;51.734;8.950;2023-02-15T05:42:13;-0.50;30.70
4727;DHT22;2377;51.734;8.950;2023-02-15T05:44:40;-0.50;22.60
4727;DHT22;2377;51.734;8.950;2023-02-15T05:47:07;-0.60;37.20
4727;DHT22;2377;51.734;8.950;2023-02-15T05:49:34;-0.60;51.30
4727;DHT22;2377;51.734;8.950;2023-02-15T05:52:02;-0.60;62.40
4727;DHT22;2377;51.734;8.950;2023-02-15T05:54:29;-0.60;17.10
4727;DHT22;2377;51.734;8.950;2023-02-15T05:56:56;-0.60;29.70
4727;DHT22;2377;51.734;8.950;2023-02-15T05:59:25;-0.60;35.30
4727;DHT22;2377;51.734;8.950;2023-02-15T06:01:52;-0.60;40.90
4727;DHT22;2377;51.734;8.950;2023-02-15T06:04:18;-0.60;42.90
4727;DHT22;2377;51.734;8.950;2023-02-15T06:06:45;-0.60;49.70
4727;DHT22;2377;51.734;8.950;2023-02-15T06:09:13;-0.60;60.20
4727;DHT22;2377;51.734;8.950;2023-02-15T06:11:40;-0.60;71.20
4727;DHT22;2377;51.734;8.950;2023-02-15T06:14:07;-0.60;94.00
4727;DHT22;2377;51.734;8.950;2023-02-15T06:16:35;-0.60;99.90
4727;DHT22;2377;51.734;8.950;2023-02-15T06:19:02;-0.50;99.90
4727;DHT22;2377;51.734;8.950;2023-02-15T06:21:30;-0.50;99.90
4727;DHT22;2377;51.734;8.950;2023-02-15T06:23:57;-0.40;99.90
4727;DHT22;2377;51.734;8.950;2023-02-15T06:26:24;-0.30;99.90
4727;DHT22;2377;51.734;8.950;2023-02-15T06:28:51;-0.30;99.90
4727;DHT22;2377;51.734;8.950;2023-02-15T06:31:21;-0.30;75.70
4727;DHT22;2377;51.734;8.950;2023-02-15T06:33:49;-0.30;81.50
4727;DHT22;2377;51.734;8.950;2023-02-15T06:36:16;-0.30;99.90
4727;DHT22;2377;51.734;8.950;2023-02-15T06:38:43;-0.30;99.90
4727;DHT22;2377;51.734;8.950;2023-02-15T06:41:10;-0.30;99.90
4727;DHT22;2377;51.734;8.950;2023-02-15T06:43:37;-0.30;99.90
4727;DHT22;2377;51.734;8.950;2023-02-15T06:46:03;-0.30;99.90
4727;DHT22;2377;51.734;8.950;2023-02-15T06:48:30;-0.30;99.90
4727;DHT22;2377;51.734;8.950;2023-02-15T06:50:59;-0.30;99.90
4727;DHT22;2377;51.734;8.950;2023-02-15T06:53:25;-0.20;97.90
4727;DHT22;2377;51.734;8.950;2023-02-15T06:55:52;-0.30;99.00
4727;DHT22;2377;51.734;8.950;2023-02-15T06:58:26;-0.20;93.40
4727;DHT22;2377;51.734;8.950;2023-02-15T07:00:53;-0.30;99.90
4727;DHT22;2377;51.734;8.950;2023-02-15T07:03:21;-0.20;99.90
4727;DHT22;2377;51.734;8.950;2023-02-15T07:05:47;-0.20;99.90
4727;DHT22;2377;51.734;8.950;2023-02-15T07:08:16;-0.10;99.90
4727;DHT22;2377;51.734;8.950;2023-02-15T07:10:46;-0.10;99.90
4727;DHT22;2377;51.734;8.950;2023-02-15T07:13:13;-0.10;99.90
4727;DHT22;2377;51.734;8.950;2023-02-15T07:15:39;-0.10;99.90
4727;DHT22;2377;51.734;8.950;2023-02-15T07:18:06;-0.10;99.90
4727;DHT22;2377;51.734;8.950;2023-02-15T07:20:34;-0.10;99.90
4727;DHT22;2377;51.734;8.950;2023-02-15T07:23:02;0.00;99.90
4727;DHT22;2377;51.734;8.950;2023-02-15T07:25:30;0.00;99.90
4727;DHT22;2377;51.734;8.950;2023-02-15T07:27:57;0.00;99.90
4727;DHT22;2377;51.734;8.950;2023-02-15T07:30:28;0.10;99.90
4727;DHT22;2377;51.734;8.950;2023-02-15T07:32:55;0.10;99.90
4727;DHT22;2377;51.734;8.950;2023-02-15T07:35:47;0.20;99.90
4727;DHT22;2377;51.734;8.950;2023-02-15T07:38:14;0.30;99.90
4727;DHT22;2377;51.734;8.950;2023-02-15T07:40:45;0.30;99.90
4727;DHT22;2377;51.734;8.950;2023-02-15T07:43:13;0.50;99.90
4727;DHT22;2377;51.734;8.950;2023-02-15T07:45:40;0.50;99.90
4727;DHT22;2377;51.734;8.950;2023-02-15T07:48:07;0.60;99.90
4727;DHT22;2377;51.734;8.950;2023-02-15T07:50:34;0.60;99.90
4727;DHT22;2377;51.734;8.950;2023-02-15T07:53:02;0.60;99.90
4727;DHT22;2377;51.734;8.950;2023-02-15T07:55:29;0.60;99.90
4727;DHT22;2377;51.734;8.950;2023-02-15T07:57:58;0.70;99.90
4727;DHT22;2377;51.734;8.950;2023-02-15T08:00:25;0.80;99.90
4727;DHT22;2377;51.734;8.950;2023-02-15T08:02:53;0.80;99.90
4727;DHT22;2377;51.734;8.950;2023-02-15T08:05:47;0.80;99.90
4727;DHT22;2377;51.734;8.950;2023-02-15T08:08:14;1.00;99.90
4727;DHT22;2377;51.734;8.950;2023-02-15T08:11:15;1.00;99.90
4727;DHT22;2377;51.734;8.950;2023-02-15T08:13:59;1.10;99.90
4727;DHT22;2377;51.734;8.950;2023-02-15T08:16:31;1.10;99.90
4727;DHT22;2377;51.734;8.950;2023-02-15T08:19:01;1.20;99.90
4727;DHT22;2377;51.734;8.950;2023-02-15T08:21:31;1.30;99.90
4727;DHT22;2377;51.734;8.950;2023-02-15T08:24:00;1.30;99.90
4727;DHT22;2377;51.734;8.950;2023-02-15T08:26:29;1.50;99.90
4727;DHT22;2377;51.734;8.950;2023-02-15T08:28:59;1.60;99.90
4727;DHT22;2377;51.734;8.950;2023-02-15T08:31:27;1.70;99.90
4727;DHT22;2377;51.734;8.950;2023-02-15T08:33:56;1.90;99.90
4727;DHT22;2377;51.734;8.950;2023-02-15T08:36:25;2.00;99.90
4727;DHT22;2377;51.734;8.950;2023-02-15T08:38:54;2.10;99.90
4727;DHT22;2377;51.734;8.950;2023-02-15T08:41:25;2.20;99.90
4727;DHT22;2377;51.734;8.950;2023-02-15T08:43:57;2.40;99.90
4727;DHT22;2377;51.734;8.950;2023-02-15T08:46:26;2.60;98.00
4727;DHT22;2377;51.734;8.950;2023-02-15T08:48:56;2.90;93.70
4727;DHT22;2377;51.734;8.950;2023-02-15T08:51:25;3.10;64.10
4727;DHT22;2377;51.734;8.950;2023-02-15T08:53:55;3.50;37.40
4727;DHT22;2377;51.734;8.950;2023-02-15T08:56:26;3.70;10.90
4727;DHT22;2377;51.734;8.950;2023-02-15T08:58:56;3.90;1.00
4727;DHT22;2377;51.734;8.950;2023-02-15T09:01:24;4.00;1.00
4727;DHT22;2377;51.734;8.950;2023-02-15T09:03:56;4.20;1.00
4727;DHT22;2377;51.734;8.950;2023-02-15T09:06:26;4.30;1.00
4727;DHT22;2377;51.734;8.950;2023-02-15T09:08:55;4.50;1.00
4727;DHT22;2377;51.734;8.950;2023-02-15T09:11:25;4.60;1.00
4727;DHT22;2377;51.734;8.950;2023-02-15T09:13:57;4.80;1.00
4727;DHT22;2377;51.734;8.950;2023-02-15T09:16:27;5.00;1.00
4727;DHT22;2377;51.734;8.950;2023-02-15T09:18:55;5.10;1.00
4727;DHT22;2377;51.734;8.950;2023-02-15T09:21:24;5.30;1.00
4727;DHT22;2377;51.734;8.950;2023-02-15T09:23:56;5.40;1.00
4727;DHT22;2377;51.734;8.950;2023-02-15T09:26:25;5.50;1.00
4727;DHT22;2377;51.734;8.950;2023-02-15T09:28:57;5.60;1.00
4727;DHT22;2377;51.734;8.950;2023-02-15T09:31:29;5.90;1.00
4727;DHT22;2377;51.734;8.950;2023-02-15T09:33:58;6.00;1.00
4727;DHT22;2377;51.734;8.950;2023-02-15T09:36:32;6.20;1.00
4727;DHT22;2377;51.734;8.950;2023-02-15T09:39:06;6.30;1.00
4727;DHT22;2377;51.734;8.950;2023-02-15T09:41:57;6.50;1.00
4727;DHT22;2377;51.734;8.950;2023-02-15T09:45:33;6.70;1.00
4727;DHT22;2377;51.734;8.950;2023-02-15T09:48:35;6.90;1.00
4727;DHT22;2377;51.734;8.950;2023-02-15T09:51:31;7.00;1.00
4727;DHT22;2377;51.734;8.950;2023-02-15T09:54:23;7.00;1.00
4727;DHT22;2377;51.734;8.950;2023-02-15T09:57:10;7.30;1.00
4727;DHT22;2377;51.734;8.950;2023-02-15T09:59:53;7.50;1.00
4727;DHT22;2377;51.734;8.950;2023-02-15T10:02:41;7.60;1.00
4727;DHT22;2377;51.734;8.950;2023-02-15T10:05:29;7.90;1.00
4727;DHT22;2377;51.734;8.950;2023-02-15T10:08:22;8.00;1.00
4727;DHT22;2377;51.734;8.950;2023-02-15T10:11:12;8.20;1.00
4727;DHT22;2377;51.734;8.950;2023-02-15T10:17:12;8.60;1.00
4727;DHT22;2377;51.734;8.950;2023-02-15T10:19:59;8.80;1.00
4727;DHT22;2377;51.734;8.950;2023-02-15T10:22:45;8.90;1.00
4727;DHT22;2377;51.734;8.950;2023-02-15T10:25:31;8.80;1.00
4727;DHT22;2377;51.734;8.950;2023-02-15T10:28:13;8.80;1.00
4727;DHT22;2377;51.734;8.950;2023-02-15T10:30:47;8.80;1.00
4727;DHT22;2377;51.734;8.950;2023-02-15T10:33:34;8.80;1.00
4727;DHT22;2377;51.734;8.950;2023-02-15T10:36:15;8.90;1.00
4727;DHT22;2377;51.734;8.950;2023-02-15T10:38:58;8.80;1.00
4727;DHT22;2377;51.734;8.950;2023-02-15T10:41:40;8.80;1.00
4727;DHT22;2377;51.734;8.950;2023-02-15T10:44:24;8.60;1.00
4727;DHT22;2377;51.734;8.950;2023-02-15T10:47:20;8.60;1.00
4727;DHT22;2377;51.734;8.950;2023-02-15T10:50:15;8.50;1.00
4727;DHT22;2377;51.734;8.950;2023-02-15T10:53:04;8.40;1.00
4727;DHT22;2377;51.734;8.950;2023-02-15T10:55:50;8.20;1.00
4727;DHT22;2377;51.734;8.950;2023-02-15T10:58:31;8.00;1.00
4727;DHT22;2377;51.734;8.950;2023-02-15T11:01:18;7.80;1.00
4727;DHT22;2377;51.734;8.950;2023-02-15T11:04:17;7.60;1.00
4727;DHT22;2377;51.734;8.950;2023-02-15T11:07:08;7.50;1.00
4727;DHT22;2377;51.734;8.950;2023-02-15T11:09:45;7.40;1.00
4727;DHT22;2377;51.734;8.950;2023-02-15T11:12:18;7.50;1.00
4727;DHT22;2377;51.734;8.950;2023-02-15T11:14:52;7.40;1.00
4727;DHT22;2377;51.734;8.950;2023-02-15T11:17:28;7.50;1.00
4727;DHT22;2377;51.734;8.950;2023-02-15T11:20:08;7.60;1.00
4727;DHT22;2377;51.734;8.950;2023-02-15T11:22:48;7.80;1.00
4727;DHT22;2377;51.734;8.950;2023-02-15T11:25:24;8.00;1.00
4727;DHT22;2377;51.734;8.950;2023-02-15T11:27:55;8.10;1.00
4727;DHT22;2377;51.734;8.950;2023-02-15T11:30:24;8.30;1.00
4727;DHT22;2377;51.734;8.950;2023-02-15T11:32:56;8.30;1.00
4727;DHT22;2377;51.734;8.950;2023-02-15T11:35:31;8.30;1.00
4727;DHT22;2377;51.734;8.950;2023-02-15T11:38:07;8.30;1.00
4727;DHT22;2377;51.734;8.950;2023-02-15T11:40:45;8.20;1.00
4727;DHT22;2377;51.734;8.950;2023-02-15T11:43:18;8.10;1.00
4727;DHT22;2377;51.734;8.950;2023-02-15T11:45:50;8.10;1.00
4727;DHT22;2377;51.734;8.950;2023-02-15T11:48:17;8.20;1.00
4727;DHT22;2377;51.734;8.950;2023-02-15T11:50:45;8.30;1.00
4727;DHT22;2377;51.734;8.950;2023-02-15T11:53:14;8.30;1.00
4727;DHT22;2377;51.734;8.950;2023-02-15T11:55:45;8.50;1.00
4727;DHT22;2377;51.734;8.950;2023-02-15T11:58:23;8.40;1.00
4727;DHT22;2377;51.734;8.950;2023-02-15T12:01:00;8.40;1.00
4727;DHT22;2377;51.734;8.950;2023-02-15T12:03:46;8.50;1.00
4727;DHT22;2377;51.734;8.950;2023-02-15T12:06:20;8.40;1.00
4727;DHT22;2377;51.734;8.950;2023-02-15T12:08:56;8.50;1.00
4727;DHT22;2377;51.734;8.950;2023-02-15T12:11:34;8.50;1.00
4727;DHT22;2377;51.734;8.950;2023-02-15T12:14:04;8.60;1.00
4727;DHT22;2377;51.734;8.950;2023-02-15T12:16:40;8.60;1.00
4727;DHT22;2377;51.734;8.950;2023-02-15T12:19:24;8.60;1.00
4727;DHT22;2377;51.734;8.950;2023-02-15T12:22:02;8.60;1.00
4727;DHT22;2377;51.734;8.950;2023-02-15T12:24:34;8.70;1.00
4727;DHT22;2377;51.734;8.950;2023-02-15T12:27:13;8.70;1.00
4727;DHT22;2377;51.734;8.950;2023-02-15T12:29:44;8.70;1.00
4727;DHT22;2377;51.734;8.950;2023-02-15T12:32:17;8.80;1.00
4727;DHT22;2377;51.734;8.950;2023-02-15T12:34:49;8.80;1.00
4727;DHT22;2377;51.734;8.950;2023-02-15T12:37:23;8.80;1.00
4727;DHT22;2377;51.734;8.950;2023-02-15T12:39:56;8.80;1.00
4727;DHT22;2377;51.734;8.950;2023-02-15T12:42:27;8.90;1.00
4727;DHT22;2377;51.734;8.950;2023-02-15T12:45:24;9.00;1.00
4727;DHT22;2377;51.734;8.950;2023-02-15T12:48:14;9.00;1.00
4727;DHT22;2377;51.734;8.950;2023-02-15T12:50:43;9.10;1.00
4727;DHT22;2377;51.734;8.950;2023-02-15T12:53:16;9.10;1.00
4727;DHT22;2377;51.734;8.950;2023-02-15T12:55:54;9.10;1.00
4727;DHT22;2377;51.734;8.950;2023-02-15T12:58:26;9.20;1.00
4727;DHT22;2377;51.734;8.950;2023-02-15T13:01:04;9.20;1.00
4727;DHT22;2377;51.734;8.950;2023-02-15T13:03:39;9.30;1.00
4727;DHT22;2377;51.734;8.950;2023-02-15T13:06:22;9.30;1.00
4727;DHT22;2377;51.734;8.950;2023-02-15T13:08:51;9.30;1.00
4727;DHT22;2377;51.734;8.950;2023-02-15T13:11:22;9.30;1.00
4727;DHT22;2377;51.734;8.950;2023-02-15T13:13:56;9.40;1.00
4727;DHT22;2377;51.734;8.950;2023-02-15T13:16:30;9.50;1.00
4727;DHT22;2377;51.734;8.950;2023-02-15T13:19:03;9.50;1.00
4727;DHT22;2377;51.734;8.950;2023-02-15T13:21:39;9.50;1.00
4727;DHT22;2377;51.734;8.950;2023-02-15T13:24:17;9.50;1.00
4727;DHT22;2377;51.734;8.950;2023-02-15T13:26:47;9.60;1.00
4727;DHT22;2377;51.734;8.950;2023-02-15T13:29:22;9.60;1.00
4727;DHT22;2377;51.734;8.950;2023-02-15T13:31:51;9.60;1.00
4727;DHT22;2377;51.734;8.950;2023-02-15T13:34:24;9.60;1.00
4727;DHT22;2377;51.734;8.950;2023-02-15T13:37:01;9.60;1.00
4727;DHT22;2377;51.734;8.950;2023-02-15T13:39:37;9.60;1.00
4727;DHT22;2377;51.734;8.950;2023-02-15T13:42:18;9.50;1.00
4727;DHT22;2377;51.734;8.950;2023-02-15T13:45:14;9.50;1.00
4727;DHT22;2377;51.734;8.950;2023-02-15T13:47:57;9.50;1.00
4727;DHT22;2377;51.734;8.950;2023-02-15T13:50:58;9.50;1.00
4727;DHT22;2377;51.734;8.950;2023-02-15T13:53:47;9.50;1.00
4727;DHT22;2377;51.734;8.950;2023-02-15T13:56:33;9.50;1.00
4727;DHT22;2377;51.734;8.950;2023-02-15T14:02:38;9.40;1.00
4727;DHT22;2377;51.734;8.950;2023-02-15T14:05:32;9.50;1.00
4727;DHT22;2377;51.734;8.950;2023-02-15T14:08:11;9.40;1.00
4727;DHT22;2377;51.734;8.950;2023-02-15T14:10:54;9.40;1.00
4727;DHT22;2377;51.734;8.950;2023-02-15T14:13:58;9.40;1.00
4727;DHT22;2377;51.734;8.950;2023-02-15T14:16:41;9.40;1.00
4727;DHT22;2377;51.734;8.950;2023-02-15T14:19:23;9.50;1.00
4727;DHT22;2377;51.734;8.950;2023-02-15T14:22:00;9.40;1.00
4727;DHT22;2377;51.734;8.950;2023-02-15T14:24:39;9.40;1.00
4727;DHT22;2377;51.734;8.950;2023-02-15T14:27:20;9.40;1.00
4727;DHT22;2377;51.734;8.950;2023-02-15T14:29:57;9.40;1.00
4727;DHT22;2377;51.734;8.950;2023-02-15T14:32:29;9.40;1.00
4727;DHT22;2377;51.734;8.950;2023-02-15T14:35:05;9.50;1.00
4727;DHT22;2377;51.734;8.950;2023-02-15T14:37:43;9.50;1.00
4727;DHT22;2377;51.734;8.950;2023-02-15T14:40:32;9.40;1.00
4727;DHT22;2377;51.734;8.950;2023-02-15T14:43:31;9.40;1.00
4727;DHT22;2377;51.734;8.950;2023-02-15T14:46:15;9.30;1.00
4727;DHT22;2377;51.734;8.950;2023-02-15T14:48:51;9.20;1.00
4727;DHT22;2377;51.734;8.950;2023-02-15T14:51:56;9.10;1.00
4727;DHT22;2377;51.734;8.950;2023-02-15T14:54:53;9.10;1.00
4727;DHT22;2377;51.734;8.950;2023-02-15T14:57:31;9.00;1.00
4727;DHT22;2377;51.734;8.950;2023-02-15T15:00:02;9.00;1.00
4727;DHT22;2377;51.734;8.950;2023-02-15T15:02:49;9.00;1.00
4727;DHT22;2377;51.734;8.950;2023-02-15T15:05:23;8.90;1.00
4727;DHT22;2377;51.734;8.950;2023-02-15T15:07:58;8.80;1.00
4727;DHT22;2377;51.734;8.950;2023-02-15T15:10:40;8.70;1.00
4727;DHT22;2377;51.734;8.950;2023-02-15T15:13:38;8.70;1.00
4727;DHT22;2377;51.734;8.950;2023-02-15T15:16:29;8.70;1.00
4727;DHT22;2377;51.734;8.950;2023-02-15T15:19:01;8.70;1.00
4727;DHT22;2377;51.734;8.950;2023-02-15T15:21:52;8.60;1.00
4727;DHT22;2377;51.734;8.950;2023-02-15T15:24:47;8.60;1.00
4727;DHT22;2377;51.734;8.950;2023-02-15T15:27:52;8.60;1.00
4727;DHT22;2377;51.734;8.950;2023-02-15T15:33:59;8.50;1.00
4727;DHT22;2377;51.734;8.950;2023-02-15T15:41:00;8.30;1.00
4727;DHT22;2377;51.734;8.950;2023-02-15T15:47:14;8.10;1.00
4727;DHT22;2377;51.734;8.950;2023-02-15T15:50:12;8.00;1.00
4727;DHT22;2377;51.734;8.950;2023-02-15T15:52:43;7.90;1.00
4727;DHT22;2377;51.734;8.950;2023-02-15T15:55:16;7.80;1.00
4727;DHT22;2377;51.734;8.950;2023-02-15T15:57:49;7.80;1.00
4727;DHT22;2377;51.734;8.950;2023-02-15T16:00:31;7.70;1.00
4727;DHT22;2377;51.734;8.950;2023-02-15T16:03:12;7.70;1.00
4727;DHT22;2377;51.734;8.950;2023-02-15T16:05:41;7.60;1.00
4727;DHT22;2377;51.734;8.950;2023-02-15T16:08:08;7.50;1.00
4727;DHT22;2377;51.734;8.950;2023-02-15T16:10:35;7.30;1.00
4727;DHT22;2377;51.734;8.950;2023-02-15T16:13:05;7.30;1.00
4727;DHT22;2377;51.734;8.950;2023-02-15T16:15:36;7.30;1.00
4727;DHT22;2377;51.734;8.950;2023-02-15T16:18:16;7.30;1.00
4727;DHT22;2377;51.734;8.950;2023-02-15T16:20:50;7.20;1.00
4727;DHT22;2377;51.734;8.950;2023-02-15T16:23:54;7.10;1.00
4727;DHT22;2377;51.734;8.950;2023-02-15T16:26:50;7.10;1.00
4727;DHT22;2377;51.734;8.950;2023-02-15T16:29:31;7.10;1.00
4727;DHT22;2377;51.734;8.950;2023-02-15T16:32:01;6.90;1.00
4727;DHT22;2377;51.734;8.950;2023-02-15T16:34:29;6.80;1.00
4727;DHT22;2377;51.734;8.950;2023-02-15T16:37:17;6.80;1.00
4727;DHT22;2377;51.734;8.950;2023-02-15T16:39:47;6.80;1.00
4727;DHT22;2377;51.734;8.950;2023-02-15T16:42:15;6.60;1.00
4727;DHT22;2377;51.734;8.950;2023-02-15T16:44:45;6.60;1.00
4727;DHT22;2377;51.734;8.950;2023-02-15T16:47:16;6.50;1.00
4727;DHT22;2377;51.734;8.950;2023-02-15T16:49:47;6.50;1.00
4727;DHT22;2377;51.734;8.950;2023-02-15T16:52:20;6.40;1.00
4727;DHT22;2377;51.734;8.950;2023-02-15T16:54:55;6.30;1.00
4727;DHT22;2377;51.734;8.950;2023-02-15T16:57:27;6.30;1.00
4727;DHT22;2377;51.734;8.950;2023-02-15T17:00:03;6.20;1.00
4727;DHT22;2377;51.734;8.950;2023-02-15T17:02:34;6.10;1.00
4727;DHT22;2377;51.734;8.950;2023-02-15T17:05:10;6.10;1.00
4727;DHT22;2377;51.734;8.950;2023-02-15T17:07:50;6.10;1.00
4727;DHT22;2377;51.734;8.950;2023-02-15T17:10:34;6.00;1.00
4727;DHT22;2377;51.734;8.950;2023-02-15T17:13:03;6.00;1.00
4727;DHT22;2377;51.734;8.950;2023-02-15T17:15:39;5.80;1.00
4727;DHT22;2377;51.734;8.950;2023-02-15T17:18:11;5.80;1.00
4727;DHT22;2377;51.734;8.950;2023-02-15T17:20:44;5.70;1.00
4727;DHT22;2377;51.734;8.950;2023-02-15T17:23:22;5.80;1.00
4727;DHT22;2377;51.734;8.950;2023-02-15T17:25:55;5.60;1.00
4727;DHT22;2377;51.734;8.950;2023-02-15T17:28:25;5.60;1.00
4727;DHT22;2377;51.734;8.950;2023-02-15T17:30:56;5.60;1.00
4727;DHT22;2377;51.734;8.950;2023-02-15T17:33:35;5.50;1.00
4727;DHT22;2377;51.734;8.950;2023-02-15T17:36:07;5.40;1.00
4727;DHT22;2377;51.734;8.950;2023-02-15T17:38:36;5.30;1.00